Time;durP1;ratioP1;P1;durP2;ratioP2;P2;SDS_P1;SDS_P2;PMS_P1;PMS_P2;Temp;Humidity;BMP_temperature;BMP_pressure;BME280_temperature;BME280_humidity;BME280_pressure;Samples;Min_cycle;Max_cycle;Signal;HPM_P1;HPM_P2
2024/02/03 00:00:35;;;;;;;1.10;0.50;;;7.40;1.00;;;;;;5114024;28;20452;-59
2024/02/03 00:03:02;;;;;;;1.08;0.40;;;7.50;1.00;;;;;;5115021;27;20507;-59
2024/02/03 00:05:29;;;;;;;0.60;0.40;;;7.50;27.60;;;;;;5117438;27;20477;-58
2024/02/03 00:07:57;;;;;;;2.70;0.50;;;7.50;1.00;;;;;;5114118;28;20419;-59
2024/02/03 00:10:24;;;;;;;0.82;0.50;;;7.50;1.00;;;;;;5113673;28;20416;-58
2024/02/03 00:12:51;;;;;;;2.58;0.50;;;7.60;1.00;;;;;;5114072;28;20412;-59
2024/02/03 00:15:19;;;;;;;1.30;0.40;;;7.60;1.00;;;;;;5111391;28;20503;-59
2024/02/03 00:17:51;;;;;;;0.80;0.50;;;7.50;1.00;;;;;;5114686;28;20737;-59
2024/02/03 00:20:19;;;;;;;1.00;0.40;;;7.40;1.00;;;;;;5114664;28;20455;-58
2024/02/03 00:25:27;;;;;;;1.80;0.50;;;7.50;99.90;;;;;;5111937;28;20451;-59
2024/02/03 00:27:54;;;;;;;2.55;1.15;;;7.50;1.00;;;;;;5112896;28;20511;-59
2024/02/03 00:30:21;;;;;;;2.50;0.95;;;7.40;1.00;;;;;;5113597;28;20810;-59
2024/02/03 00:32:50;;;;;;;1.70;0.70;;;7.30;1.00;;;;;;5114025;28;20427;-59
2024/02/03 00:35:17;;;;;;;1.10;0.40;;;7.30;49.30;;;;;;5112878;28;20431;-58
2024/02/03 00:37:45;;;;;;;1.27;0.60;;;7.20;99.90;;;;;;5112154;28;20424;-59
2024/02/03 00:40:12;;;;;;;0.88;0.50;;;7.20;99.90;;;;;;5112645;28;20427;-59
2024/02/03 00:42:39;;;;;;;1.57;0.53;;;7.20;99.90;;;;;;5110072;28;20416;-58
2024/02/03 00:45:07;;;;;;;1.30;0.50;;;7.30;1.00;;;;;;5112995;28;20420;-61
2024/02/03 00:47:34;;;;;;;1.50;0.50;;;7.30;99.90;;;;;;5112942;28;20493;-58
2024/02/03 00:50:03;;;;;;;1.30;0.60;;;7.30;99.90;;;;;;5113212;28;20438;-59
2024/02/03 00:52:30;;;;;;;0.90;0.60;;;7.30;99.90;;;;;;5112051;28;20456;-58
2024/02/03 00:54:57;;;;;;;0.80;0.60;;;7.40;99.90;;;;;;5111999;28;20429;-59
2024/02/03 00:57:24;;;;;;;0.93;0.60;;;7.30;99.90;;;;;;5112885;28;20412;-59
2024/02/03 00:59:51;;;;;;;1.75;0.60;;;7.30;99.90;;;;;;5113573;28;20490;-58
2024/02/03 01:02:18;;;;;;;1.08;0.60;;;7.20;99.90;;;;;;5112740;28;20748;-58
2024/02/03 01:04:46;;;;;;;1.20;0.60;;;7.30;99.90;;;;;;5113357;28;20972;-60
2024/02/03 01:07:14;;;;;;;1.70;0.60;;;7.40;99.90;;;;;;5113347;28;20420;-59
2024/02/03 01:09:41;;;;;;;1.20;0.50;;;7.40;77.30;;;;;;5114309;28;20810;-58
2024/02/03 01:12:09;;;;;;;0.70;0.40;;;7.30;1.00;;;;;;5114171;28;20408;-57
2024/02/03 01:14:36;;;;;;;0.70;0.40;;;7.10;1.00;;;;;;5113876;28;20428;-58
2024/02/03 01:17:04;;;;;;;0.75;0.40;;;7.00;1.00;;;;;;5114766;28;20756;-58
2024/02/03 01:19:31;;;;;;;1.60;0.38;;;6.80;1.00;;;;;;5113277;28;20458;-59
2024/02/03 01:21:59;;;;;;;0.50;0.30;;;6.70;1.00;;;;;;5113963;28;20456;-59
2024/02/03 01:24:27;;;;;;;0.70;0.30;;;6.60;99.90;;;;;;5111259;28;20413;-58
2024/02/03 01:26:54;;;;;;;0.55;0.30;;;6.60;1.00;;;;;;5115420;28;20420;-59
2024/02/03 01:29:21;;;;;;;0.80;0.40;;;6.80;94.20;;;;;;5113847;28;20424;-59
2024/02/03 01:31:49;;;;;;;0.90;0.30;;;6.90;1.00;;;;;;5114066;28;20452;-60
2024/02/03 01:34:16;;;;;;;1.38;0.40;;;7.00;99.90;;;;;;5112921;28;20430;-58
2024/02/03 01:36:43;;;;;;;0.70;0.30;;;6.90;99.90;;;;;;5113704;28;20934;-58
2024/02/03 01:39:10;;;;;;;1.00;0.30;;;6.90;99.90;;;;;;5113275;28;20485;-59
2024/02/03 01:41:39;;;;;;;0.90;0.35;;;6.90;1.00;;;;;;5114595;28;20467;-59
2024/02/03 01:44:06;;;;;;;0.80;0.30;;;6.80;99.90;;;;;;5110717;28;20432;-61
2024/02/03 01:46:34;;;;;;;0.60;0.30;;;6.80;1.00;;;;;;5113792;28;20420;-58
2024/02/03 01:49:01;;;;;;;0.77;0.40;;;6.80;1.00;;;;;;5113589;28;20961;-59
2024/02/03 01:51:29;;;;;;;0.70;0.40;;;6.80;1.00;;;;;;5109228;28;20782;-59
2024/02/03 01:53:57;;;;;;;0.57;0.30;;;6.90;1.00;;;;;;5113611;28;20420;-59
2024/02/03 01:56:25;;;;;;;0.50;0.30;;;6.90;1.00;;;;;;5114117;28;20424;-59
2024/02/03 01:58:54;;;;;;;0.65;0.40;;;6.90;99.90;;;;;;5112701;28;20488;-59
2024/02/03 02:01:22;;;;;;;0.80;0.40;;;6.90;1.00;;;;;;5112698;28;20432;-60
2024/02/03 02:03:50;;;;;;;0.52;0.30;;;6.80;1.00;;;;;;5110092;28;20809;-58
2024/02/03 02:06:17;;;;;;;0.63;0.40;;;6.80;99.90;;;;;;5112858;28;20492;-58
2024/02/03 02:08:44;;;;;;;0.50;0.30;;;6.70;1.00;;;;;;5113771;28;20420;-57
2024/02/03 02:11:12;;;;;;;0.60;0.30;;;6.70;1.00;;;;;;5112711;28;20419;-59
2024/02/03 02:13:39;;;;;;;0.60;0.30;;;6.70;1.00;;;;;;5112637;28;20436;-58
2024/02/03 02:16:08;;;;;;;1.00;0.32;;;6.60;1.00;;;;;;5113539;28;20435;-58
2024/02/03 02:18:35;;;;;;;0.55;0.30;;;6.50;1.00;;;;;;5113260;28;20416;-58
2024/02/03 02:21:04;;;;;;;1.00;0.40;;;6.60;99.90;;;;;;5113253;28;20444;-58
2024/02/03 02:23:31;;;;;;;0.60;0.30;;;6.60;1.00;;;;;;5112480;28;20434;-58
2024/02/03 02:25:58;;;;;;;0.60;0.30;;;6.60;99.90;;;;;;5113325;28;20451;-58
2024/02/03 02:28:26;;;;;;;0.70;0.40;;;6.70;34.20;;;;;;5113679;28;20952;-58
2024/02/03 02:30:53;;;;;;;0.60;0.30;;;6.70;1.00;;;;;;5113999;28;20428;-58
2024/02/03 02:33:20;;;;;;;0.70;0.30;;;6.70;1.00;;;;;;5113423;28;20439;-58
2024/02/03 02:35:49;;;;;;;0.60;0.30;;;6.70;1.00;;;;;;5112539;28;20420;-58
2024/02/03 02:38:19;;;;;;;0.60;0.30;;;6.70;1.00;;;;;;5112969;28;20834;-58
2024/02/03 02:40:46;;;;;;;0.70;0.40;;;6.80;1.00;;;;;;5113046;28;20512;-58
2024/02/03 02:43:13;;;;;;;0.70;0.30;;;6.90;8.60;;;;;;5112841;28;20432;-58
2024/02/03 02:45:41;;;;;;;0.70;0.40;;;7.00;1.00;;;;;;5112959;28;20416;-58
2024/02/03 02:48:08;;;;;;;0.60;0.30;;;7.10;1.00;;;;;;5110294;28;20427;-58
2024/02/03 02:50:35;;;;;;;0.60;0.40;;;6.90;99.90;;;;;;5113096;28;20431;-58
2024/02/03 02:53:02;;;;;;;0.70;0.30;;;6.70;99.90;;;;;;5112520;28;20424;-58
2024/02/03 02:55:31;;;;;;;0.70;0.40;;;6.60;99.90;;;;;;5112823;28;20416;-58
2024/02/03 02:57:58;;;;;;;0.63;0.33;;;6.50;99.90;;;;;;5112718;28;20416;-58
2024/02/03 03:00:25;;;;;;;1.20;0.40;;;6.50;1.00;;;;;;5111905;28;20412;-58
2024/02/03 03:02:52;;;;;;;0.70;0.30;;;6.40;1.00;;;;;;5112347;28;20432;-58
2024/02/03 03:05:19;;;;;;;0.70;0.30;;;6.50;99.90;;;;;;5111368;28;20424;-58
2024/02/03 03:07:46;;;;;;;0.85;0.40;;;6.60;1.00;;;;;;5111535;28;20424;-58
2024/02/03 03:10:13;;;;;;;0.80;0.30;;;6.60;99.90;;;;;;5112461;28;20424;-58
2024/02/03 03:12:42;;;;;;;0.55;0.30;;;6.60;1.00;;;;;;5112692;28;20473;-58
2024/02/03 03:15:10;;;;;;;0.70;0.30;;;6.40;1.00;;;;;;5112166;28;20766;-58
2024/02/03 03:17:37;;;;;;;0.80;0.40;;;6.30;1.00;;;;;;5112434;28;20431;-56
2024/02/03 03:20:04;;;;;;;0.60;0.30;;;6.30;1.00;;;;;;5111339;28;20423;-58
2024/02/03 03:22:31;;;;;;;0.50;0.30;;;6.30;1.00;;;;;;5111697;28;20568;-57
2024/02/03 03:24:58;;;;;;;0.70;0.30;;;6.30;1.00;;;;;;5112270;28;20419;-58
2024/02/03 03:27:26;;;;;;;1.20;0.32;;;6.30;1.00;;;;;;5112934;28;20418;-58
2024/02/03 03:29:54;;;;;;;0.70;0.30;;;6.30;1.00;;;;;;5111307;28;20814;-58
2024/02/03 03:32:21;;;;;;;0.60;0.30;;;6.30;25.10;;;;;;5113420;28;20420;-58
2024/02/03 03:34:49;;;;;;;0.50;0.30;;;6.30;1.00;;;;;;5111864;28;20424;-58
2024/02/03 03:37:16;;;;;;;1.00;0.32;;;6.30;99.90;;;;;;5112173;28;20423;-58
2024/02/03 03:39:43;;;;;;;0.70;0.30;;;6.40;99.90;;;;;;5111789;28;20412;-59
2024/02/03 03:42:10;;;;;;;0.80;0.30;;;6.30;1.00;;;;;;5107179;28;20481;-57
2024/02/03 03:44:37;;;;;;;0.80;0.40;;;6.30;1.00;;;;;;5108825;28;20515;-58
2024/02/03 03:47:05;;;;;;;0.70;0.30;;;6.30;99.90;;;;;;5107537;28;20489;-58
2024/02/03 03:49:33;;;;;;;0.55;0.30;;;6.30;1.00;;;;;;5110330;28;21045;-58
2024/02/03 03:52:00;;;;;;;0.80;0.40;;;6.20;99.90;;;;;;5110482;28;21051;-57
2024/02/03 03:54:27;;;;;;;0.52;0.30;;;6.20;99.90;;;;;;5111067;28;20425;-58
2024/02/03 03:56:54;;;;;;;0.70;0.30;;;6.20;66.80;;;;;;5112502;28;20447;-58
2024/02/03 03:59:21;;;;;;;0.60;0.30;;;6.20;1.00;;;;;;5111567;28;20764;-58
2024/02/03 04:01:49;;;;;;;0.70;0.30;;;6.10;1.00;;;;;;5112674;28;20435;-57
2024/02/03 04:04:19;;;;;;;1.50;0.30;;;6.10;99.90;;;;;;5112754;28;20856;-57
2024/02/03 04:06:46;;;;;;;0.60;0.30;;;6.10;99.90;;;;;;5111698;28;20443;-57
2024/02/03 04:09:14;;;;;;;0.50;0.30;;;6.00;1.00;;;;;;5112851;28;20806;-57
2024/02/03 04:11:41;;;;;;;0.50;0.30;;;6.00;99.90;;;;;;5111137;28;20475;-57
2024/02/03 04:14:09;;;;;;;0.80;0.40;;;6.00;1.00;;;;;;5111611;28;20431;-58
2024/02/03 04:16:36;;;;;;;1.60;0.38;;;6.10;1.00;;;;;;5112564;28;20424;-57
2024/02/03 04:19:03;;;;;;;0.55;0.30;;;6.20;1.00;;;;;;5112116;28;20447;-57
2024/02/03 04:21:33;;;;;;;0.80;0.30;;;6.20;1.00;;;;;;5115033;28;20423;-57
2024/02/03 04:24:00;;;;;;;0.57;0.30;;;6.00;1.00;;;;;;5115540;28;20438;-57
2024/02/03 04:26:27;;;;;;;0.80;0.30;;;6.00;1.00;;;;;;5116070;28;20779;-58
2024/02/03 04:28:54;;;;;;;0.60;0.30;;;5.90;99.90;;;;;;5114828;28;20424;-57
2024/02/03 04:31:21;;;;;;;0.70;0.30;;;5.90;1.00;;;;;;5115577;28;20478;-57
2024/02/03 04:33:48;;;;;;;0.70;0.30;;;6.00;99.90;;;;;;5115709;28;20850;-57
2024/02/03 04:36:15;;;;;;;0.70;0.40;;;6.00;1.00;;;;;;5115506;28;20416;-57
2024/02/03 04:38:43;;;;;;;0.70;0.40;;;6.00;1.00;;;;;;5115789;28;20428;-57
2024/02/03 04:41:20;;;;;;;0.80;0.40;;;6.00;1.00;;;;;;5112125;28;20877;-57
2024/02/03 04:43:47;;;;;;;0.60;0.30;;;6.00;99.90;;;;;;5112226;28;20947;-55
2024/02/03 04:46:14;;;;;;;0.50;0.30;;;6.00;99.90;;;;;;5114895;28;21115;-57
2024/02/03 04:48:42;;;;;;;0.60;0.30;;;6.10;1.00;;;;;;5114904;28;20562;-57
2024/02/03 04:51:09;;;;;;;0.70;0.40;;;6.10;90.00;;;;;;5113406;28;20424;-57
2024/02/03 04:53:36;;;;;;;0.60;0.40;;;6.10;99.90;;;;;;5114165;28;20491;-57
2024/02/03 04:56:06;;;;;;;0.63;0.30;;;6.00;99.90;;;;;;5115694;28;20420;-58
2024/02/03 04:58:33;;;;;;;0.70;0.40;;;5.90;1.00;;;;;;5112518;28;20420;-57
2024/02/03 05:01:00;;;;;;;0.80;0.40;;;5.90;1.00;;;;;;5112687;28;20424;-57
2024/02/03 05:03:27;;;;;;;0.60;0.30;;;5.90;99.90;;;;;;5111281;28;20504;-58
2024/02/03 05:05:54;;;;;;;0.70;0.40;;;5.90;1.00;;;;;;5114459;27;20420;-58
2024/02/03 05:08:21;;;;;;;1.20;0.40;;;5.90;99.90;;;;;;5113600;28;20903;-57
2024/02/03 05:10:48;;;;;;;0.60;0.40;;;5.90;99.90;;;;;;5113073;28;20412;-58
2024/02/03 05:13:17;;;;;;;0.95;0.40;;;5.90;99.90;;;;;;5114445;28;20485;-56
2024/02/03 05:15:44;;;;;;;1.17;0.30;;;6.10;36.90;;;;;;5113592;28;20477;-59
2024/02/03 05:18:11;;;;;;;0.80;0.40;;;6.10;99.90;;;;;;5111185;28;20412;-58
2024/02/03 05:20:38;;;;;;;0.50;0.30;;;6.10;1.00;;;;;;5111492;28;20445;-58
2024/02/03 05:23:05;;;;;;;0.65;0.30;;;5.90;1.00;;;;;;5108773;28;20931;-57
2024/02/03 05:25:32;;;;;;;1.00;0.30;;;5.70;1.00;;;;;;5126929;27;21009;-57
2024/02/03 05:27:59;;;;;;;0.60;0.30;;;5.60;99.10;;;;;;5135096;27;20415;-57
2024/02/03 05:30:27;;;;;;;0.80;0.30;;;5.50;1.00;;;;;;5113745;28;20405;-58
2024/02/03 05:32:54;;;;;;;1.17;0.30;;;5.60;1.00;;;;;;5112208;28;20424;-57
2024/02/03 05:35:21;;;;;;;0.70;0.40;;;5.70;53.80;;;;;;5114236;28;20428;-58
2024/02/03 05:37:48;;;;;;;0.70;0.40;;;5.80;1.00;;;;;;5112872;28;20427;-57
2024/02/03 05:40:16;;;;;;;0.80;0.40;;;5.80;74.60;;;;;;5114092;27;20420;-57
2024/02/03 05:42:43;;;;;;;0.70;0.40;;;5.70;1.00;;;;;;5133535;27;20435;-58
2024/02/03 05:45:11;;;;;;;0.80;0.40;;;5.70;99.90;;;;;;5110749;27;20458;-57
2024/02/03 05:47:39;;;;;;;0.70;0.43;;;5.70;99.90;;;;;;5111322;28;20704;-56
2024/02/03 05:50:07;;;;;;;0.60;0.40;;;5.90;99.90;;;;;;5098880;28;20445;-55
2024/02/03 05:52:34;;;;;;;0.80;0.40;;;5.80;1.00;;;;;;5099850;28;20432;-56
2024/02/03 05:55:01;;;;;;;0.70;0.30;;;5.70;1.00;;;;;;5094464;28;20424;-56
2024/02/03 05:57:28;;;;;;;0.80;0.50;;;5.60;1.00;;;;;;5094376;28;20422;-55
2024/02/03 05:59:55;;;;;;;0.80;0.40;;;5.50;99.90;;;;;;5094073;28;20433;-57
2024/02/03 06:02:22;;;;;;;1.98;0.47;;;5.40;1.00;;;;;;5093120;28;20812;-57
2024/02/03 06:04:51;;;;;;;0.90;0.40;;;5.40;1.00;;;;;;5098835;28;20436;-57
2024/02/03 06:07:18;;;;;;;1.00;0.40;;;5.40;99.90;;;;;;5112908;28;20428;-57
2024/02/03 06:09:44;;;;;;;0.70;0.40;;;5.50;1.00;;;;;;5096497;28;20436;-57
2024/02/03 06:12:11;;;;;;;0.65;0.40;;;5.50;1.00;;;;;;5093559;28;20434;-57
2024/02/03 06:14:40;;;;;;;0.70;0.40;;;5.60;1.00;;;;;;5112673;28;20501;-57
2024/02/03 06:17:08;;;;;;;1.63;0.50;;;5.70;99.90;;;;;;5111114;28;20436;-55
2024/02/03 06:19:35;;;;;;;0.90;0.40;;;5.70;1.00;;;;;;5108038;28;20869;-56
2024/02/03 06:22:04;;;;;;;0.80;0.40;;;5.80;1.00;;;;;;5111667;28;20432;-57
2024/02/03 06:24:32;;;;;;;0.60;0.40;;;5.80;99.90;;;;;;5112614;28;20503;-57
2024/02/03 06:26:59;;;;;;;0.80;0.40;;;5.80;99.90;;;;;;5113810;28;20431;-57
2024/02/03 06:29:26;;;;;;;0.90;0.50;;;5.70;99.90;;;;;;5110819;28;20437;-57
2024/02/03 06:31:53;;;;;;;0.85;0.50;;;5.70;99.90;;;;;;5111781;28;20420;-57
2024/02/03 06:34:20;;;;;;;1.20;0.40;;;5.70;1.00;;;;;;5112377;28;20481;-56
2024/02/03 06:36:47;;;;;;;1.02;0.40;;;5.80;1.00;;;;;;5096751;28;20479;-57
2024/02/03 06:39:15;;;;;;;0.90;0.40;;;5.80;1.00;;;;;;5092001;28;20422;-56
2024/02/03 06:41:42;;;;;;;0.73;0.30;;;5.70;1.00;;;;;;5091384;28;20900;-57
2024/02/03 06:44:10;;;;;;;0.90;0.50;;;5.80;99.90;;;;;;5090897;28;20433;-57
2024/02/03 06:46:37;;;;;;;0.68;0.40;;;5.90;99.90;;;;;;5097741;28;20443;-62
2024/02/03 06:49:04;;;;;;;0.80;0.40;;;6.00;1.00;;;;;;5108888;28;20432;-58
2024/02/03 06:51:31;;;;;;;0.90;0.50;;;6.10;1.00;;;;;;5105474;28;21064;-58
2024/02/03 06:53:58;;;;;;;0.90;0.50;;;6.10;1.00;;;;;;5091589;28;20499;-57
2024/02/03 06:56:26;;;;;;;1.55;0.60;;;6.10;1.00;;;;;;5093262;28;20742;-57
2024/02/03 06:58:54;;;;;;;1.30;0.50;;;6.10;1.00;;;;;;5116238;27;20499;-56
2024/02/03 07:01:22;;;;;;;1.95;0.60;;;6.00;1.00;;;;;;5110793;28;20485;-56
2024/02/03 07:03:49;;;;;;;1.90;0.60;;;6.00;99.90;;;;;;5110229;28;20432;-58
2024/02/03 07:06:16;;;;;;;1.20;0.60;;;6.00;1.00;;;;;;5091929;28;20426;-58
2024/02/03 07:08:43;;;;;;;2.72;0.60;;;5.90;1.00;;;;;;5111831;28;20485;-57
2024/02/03 07:11:11;;;;;;;1.00;0.60;;;5.80;99.90;;;;;;5115454;28;20479;-58
2024/02/03 07:13:41;;;;;;;1.20;0.60;;;5.80;1.00;;;;;;5131297;28;20509;-58
2024/02/03 07:16:09;;;;;;;1.60;0.70;;;5.80;1.00;;;;;;5110920;28;20436;-58
2024/02/03 07:18:36;;;;;;;1.10;0.70;;;5.80;1.00;;;;;;5110788;28;20770;-58
2024/02/03 07:21:03;;;;;;;1.42;0.77;;;5.90;29.70;;;;;;5112596;28;20436;-59
2024/02/03 07:23:30;;;;;;;1.45;0.60;;;5.90;99.90;;;;;;5108483;28;20493;-58
2024/02/03 07:25:57;;;;;;;1.75;0.70;;;5.90;99.90;;;;;;5111059;28;20426;-59
2024/02/03 07:28:24;;;;;;;1.13;0.60;;;6.10;99.90;;;;;;5109448;28;20772;-58
2024/02/03 07:30:52;;;;;;;1.20;0.60;;;6.10;1.00;;;;;;5110413;28;20499;-58
2024/02/03 07:33:19;;;;;;;1.13;0.60;;;6.10;1.00;;;;;;5108912;28;20420;-58
2024/02/03 07:35:46;;;;;;;2.30;0.70;;;6.20;94.10;;;;;;5110750;28;20428;-58
2024/02/03 07:38:17;;;;;;;1.08;0.68;;;6.30;1.00;;;;;;5107106;28;20424;-58
2024/02/03 07:40:44;;;;;;;1.10;0.77;;;6.30;99.90;;;;;;5108257;28;20837;-58
2024/02/03 07:43:11;;;;;;;1.98;0.70;;;6.20;99.90;;;;;;5108248;28;20444;-58
2024/02/03 07:45:38;;;;;;;1.90;0.80;;;6.10;1.00;;;;;;5109678;28;20474;-58
2024/02/03 07:48:07;;;;;;;1.50;0.70;;;6.10;1.00;;;;;;5108091;28;20442;-58
2024/02/03 07:50:34;;;;;;;1.50;0.70;;;6.30;1.00;;;;;;5110342;28;20502;-58
2024/02/03 07:53:01;;;;;;;1.33;0.70;;;6.40;1.00;;;;;;5111021;28;20428;-58
2024/02/03 07:55:28;;;;;;;1.30;0.80;;;6.50;1.00;;;;;;5112728;28;20450;-58
2024/02/03 07:57:55;;;;;;;1.38;0.68;;;6.50;1.00;;;;;;5110637;27;20412;-58
2024/02/03 08:00:23;;;;;;;1.20;0.70;;;6.60;1.00;;;;;;5112843;27;20420;-58
2024/02/03 08:02:50;;;;;;;1.30;0.70;;;6.70;1.00;;;;;;5114141;28;20444;-58
2024/02/03 08:05:18;;;;;;;1.70;0.90;;;6.90;1.00;;;;;;5113790;28;20431;-59
2024/02/03 08:07:45;;;;;;;1.30;0.70;;;7.00;99.90;;;;;;5114053;28;20445;-59
2024/02/03 08:10:13;;;;;;;1.52;0.70;;;7.10;1.30;;;;;;5113982;28;20432;-59
2024/02/03 08:12:40;;;;;;;1.50;0.80;;;7.00;99.90;;;;;;5113262;28;20416;-58
2024/02/03 08:15:07;;;;;;;2.70;0.70;;;7.00;95.70;;;;;;5112829;28;20424;-58
2024/02/03 08:17:34;;;;;;;2.80;0.80;;;7.00;76.10;;;;;;5116089;28;20853;-59
2024/02/03 08:20:03;;;;;;;1.50;0.70;;;7.10;99.90;;;;;;5111614;27;20440;-59
2024/02/03 08:22:31;;;;;;;1.30;0.80;;;7.20;99.90;;;;;;5114386;28;20438;-58
2024/02/03 08:24:58;;;;;;;1.42;0.70;;;7.20;99.90;;;;;;5114029;28;20818;-59
2024/02/03 08:27:25;;;;;;;1.55;0.80;;;7.30;30.30;;;;;;5112731;28;20412;-59
2024/02/03 08:29:53;;;;;;;1.92;0.75;;;7.30;3.70;;;;;;5123065;27;20440;-59
2024/02/03 08:32:20;;;;;;;1.75;0.80;;;7.40;99.90;;;;;;5097378;27;20426;-59
2024/02/03 08:34:47;;;;;;;2.88;1.00;;;7.60;99.90;;;;;;5101515;27;20424;-58
2024/02/03 08:37:14;;;;;;;1.90;0.80;;;7.80;99.90;;;;;;5115699;27;20435;-58
2024/02/03 08:39:42;;;;;;;1.48;0.90;;;7.90;1.00;;;;;;5123010;27;20410;-59
2024/02/03 08:42:09;;;;;;;2.30;0.80;;;7.90;99.90;;;;;;5092998;28;20887;-57
2024/02/03 08:44:36;;;;;;;1.60;0.90;;;7.90;99.90;;;;;;5111837;27;20727;-59
2024/02/03 08:47:03;;;;;;;1.80;0.90;;;7.90;99.90;;;;;;5131824;27;20422;-59
2024/02/03 08:49:30;;;;;;;1.50;0.82;;;8.00;99.90;;;;;;5107265;27;20949;-59
2024/02/03 08:51:57;;;;;;;1.80;0.90;;;8.10;99.90;;;;;;5129926;27;20506;-58
2024/02/03 08:54:24;;;;;;;1.58;0.80;;;8.30;1.00;;;;;;5122713;27;20402;-58
2024/02/03 08:56:53;;;;;;;1.98;0.90;;;8.20;1.00;;;;;;5131031;27;20458;-58
2024/02/03 08:59:20;;;;;;;2.10;0.90;;;8.20;1.00;;;;;;5111273;27;20435;-59
2024/02/03 09:01:47;;;;;;;1.50;0.70;;;8.70;1.00;;;;;;5117840;27;20471;-58
2024/02/03 09:04:14;;;;;;;1.60;0.90;;;8.70;99.90;;;;;;5111095;27;20432;-59
2024/02/03 09:06:40;;;;;;;1.58;0.98;;;8.80;1.00;;;;;;5109869;27;20485;-59
2024/02/03 09:09:09;;;;;;;1.77;0.90;;;8.70;22.70;;;;;;5120003;27;20415;-58
2024/02/03 09:11:36;;;;;;;1.70;0.93;;;8.50;99.90;;;;;;5131516;27;20423;-58
2024/02/03 09:14:04;;;;;;;1.90;0.93;;;8.40;1.00;;;;;;5124051;27;21052;-59
2024/02/03 09:16:31;;;;;;;2.25;0.80;;;8.20;1.00;;;;;;5110800;28;20442;-58
2024/02/03 09:18:58;;;;;;;1.45;0.90;;;8.20;99.90;;;;;;5110475;28;20416;-59
2024/02/03 09:21:25;;;;;;;1.60;0.90;;;8.30;1.00;;;;;;5110866;28;20412;-58
2024/02/03 09:23:52;;;;;;;2.00;0.90;;;8.30;1.00;;;;;;5112239;27;20436;-59
2024/02/03 09:26:19;;;;;;;1.40;0.80;;;8.40;8.20;;;;;;5101026;27;20916;-58
2024/02/03 09:28:46;;;;;;;1.83;0.90;;;8.50;99.90;;;;;;5121204;27;20420;-58
2024/02/03 09:31:19;;;;;;;2.60;0.80;;;8.60;99.90;;;;;;5104148;27;20848;-58
2024/02/03 09:33:46;;;;;;;1.60;0.85;;;8.60;99.90;;;;;;5102504;27;20790;-59
2024/02/03 09:36:13;;;;;;;1.40;0.70;;;8.70;99.90;;;;;;5122087;27;20712;-59
2024/02/03 09:38:41;;;;;;;1.20;0.80;;;8.90;86.30;;;;;;5114790;27;20479;-58
2024/02/03 09:41:09;;;;;;;1.90;0.60;;;9.00;1.00;;;;;;5113954;27;20430;-58
2024/02/03 09:43:36;;;;;;;1.25;0.70;;;9.00;1.00;;;;;;5111241;28;20432;-58
2024/02/03 09:46:04;;;;;;;1.10;0.70;;;9.00;1.00;;;;;;5114925;27;20805;-58
2024/02/03 09:48:33;;;;;;;1.65;0.70;;;9.10;1.00;;;;;;5132973;27;20429;-59
2024/02/03 09:51:01;;;;;;;0.90;0.60;;;9.00;1.00;;;;;;5131879;27;20430;-58
2024/02/03 09:53:28;;;;;;;0.90;0.60;;;8.90;4.50;;;;;;5105047;27;20504;-58
2024/02/03 09:55:57;;;;;;;0.80;0.50;;;8.90;99.90;;;;;;5111501;27;20494;-59
2024/02/03 09:58:25;;;;;;;0.80;0.50;;;8.80;99.90;;;;;;5094508;28;21133;-59
2024/02/03 10:00:53;;;;;;;1.20;0.60;;;8.80;99.90;;;;;;5109849;27;20432;-58
2024/02/03 10:03:20;;;;;;;1.00;0.60;;;8.80;99.90;;;;;;5113434;27;20423;-59
2024/02/03 10:05:52;;;;;;;1.13;0.60;;;8.70;1.00;;;;;;5110045;28;20527;-59
2024/02/03 10:08:19;;;;;;;1.17;0.60;;;8.60;1.00;;;;;;5114715;27;20434;-59
2024/02/03 10:10:52;;;;;;;1.60;0.50;;;8.50;1.00;;;;;;5113656;27;20448;-58
2024/02/03 10:13:19;;;;;;;1.42;0.60;;;8.50;1.00;;;;;;5110148;28;20497;-59
2024/02/03 10:15:46;;;;;;;0.80;0.50;;;8.70;1.00;;;;;;5110533;28;20424;-59
2024/02/03 10:18:14;;;;;;;1.13;0.60;;;8.90;1.00;;;;;;5117152;27;20475;-59
2024/02/03 10:20:41;;;;;;;0.90;0.50;;;9.30;1.00;;;;;;5132635;27;20418;-60
2024/02/03 10:23:09;;;;;;;1.20;0.50;;;9.50;99.90;;;;;;5110589;27;20436;-60
2024/02/03 10:25:39;;;;;;;1.42;0.60;;;9.70;1.00;;;;;;5110108;28;20501;-59
2024/02/03 10:28:08;;;;;;;0.98;0.60;;;9.80;97.70;;;;;;5109227;28;20424;-59
2024/02/03 10:30:36;;;;;;;0.98;0.50;;;9.60;99.90;;;;;;5105854;28;20424;-59
2024/02/03 10:33:05;;;;;;;1.00;0.50;;;9.40;1.00;;;;;;5107299;27;20652;-59
2024/02/03 10:35:33;;;;;;;0.80;0.50;;;9.20;93.50;;;;;;5107564;28;20477;-59
2024/02/03 10:38:00;;;;;;;1.00;0.50;;;9.10;99.90;;;;;;5102773;28;20438;-59
2024/02/03 10:40:31;;;;;;;0.82;0.50;;;9.30;99.90;;;;;;5109833;28;20427;-58
2024/02/03 10:42:59;;;;;;;0.80;0.50;;;9.40;99.90;;;;;;5120143;27;20914;-59
2024/02/03 10:45:28;;;;;;;0.70;0.40;;;9.60;1.00;;;;;;5130681;27;20447;-59
2024/02/03 10:48:01;;;;;;;0.90;0.50;;;9.60;1.00;;;;;;5128627;27;20445;-60
2024/02/03 10:50:33;;;;;;;0.93;0.50;;;9.70;99.90;;;;;;5128912;27;20491;-59
2024/02/03 10:53:05;;;;;;;0.85;0.50;;;9.60;99.90;;;;;;5109688;28;20920;-58
2024/02/03 10:55:37;;;;;;;0.73;0.50;;;9.60;1.00;;;;;;5108808;28;20416;-58
2024/02/03 10:58:05;;;;;;;1.00;0.60;;;9.70;1.00;;;;;;5110734;28;20477;-58
2024/02/03 11:00:32;;;;;;;0.90;0.60;;;9.60;99.90;;;;;;5109277;28;20419;-58
2024/02/03 11:03:02;;;;;;;1.00;0.70;;;9.40;1.00;;;;;;5114727;27;20432;-59
2024/02/03 11:05:30;;;;;;;1.30;0.60;;;9.30;1.00;;;;;;5116979;27;20422;-58
2024/02/03 11:08:05;;;;;;;1.45;0.47;;;9.20;49.00;;;;;;5115159;28;20427;-58
2024/02/03 11:10:37;;;;;;;1.60;0.50;;;9.20;99.90;;;;;;5125452;28;20816;-58
2024/02/03 11:13:16;;;;;;;0.90;0.50;;;9.20;99.90;;;;;;5129999;28;20461;-58
2024/02/03 11:15:44;;;;;;;0.80;0.50;;;9.20;99.90;;;;;;5129296;28;20418;-58
2024/02/03 11:18:13;;;;;;;1.35;0.50;;;9.20;99.90;;;;;;5129483;28;20484;-59
2024/02/03 11:20:41;;;;;;;1.20;0.50;;;9.20;99.90;;;;;;5127936;28;20501;-59
2024/02/03 11:23:12;;;;;;;1.08;0.60;;;9.20;99.90;;;;;;5130790;28;20441;-59
2024/02/03 11:25:44;;;;;;;1.30;0.50;;;9.30;99.90;;;;;;5113413;28;20908;-59
2024/02/03 11:28:11;;;;;;;1.00;0.55;;;9.40;1.00;;;;;;5120561;28;20793;-59
2024/02/03 11:30:39;;;;;;;1.00;0.50;;;9.50;1.00;;;;;;5113975;27;20477;-58
2024/02/03 11:33:06;;;;;;;0.80;0.50;;;9.50;1.00;;;;;;5113437;28;20946;-58
2024/02/03 11:35:33;;;;;;;1.00;0.50;;;9.50;1.00;;;;;;5113009;27;20427;-58
2024/02/03 11:38:07;;;;;;;0.70;0.45;;;9.50;1.00;;;;;;5113823;28;20519;-60
2024/02/03 11:40:44;;;;;;;0.80;0.50;;;9.70;1.00;;;;;;5114665;27;20691;-57
2024/02/03 11:43:12;;;;;;;0.80;0.50;;;9.80;99.90;;;;;;5132001;27;20527;-58
2024/02/03 11:45:46;;;;;;;0.90;0.40;;;9.80;1.00;;;;;;5134274;27;20680;-59
2024/02/03 11:48:13;;;;;;;0.70;0.40;;;9.90;1.00;;;;;;5130658;27;20474;-59
2024/02/03 11:50:41;;;;;;;0.80;0.50;;;9.90;99.90;;;;;;5133262;27;20482;-59
2024/02/03 11:53:08;;;;;;;0.80;0.47;;;9.90;1.00;;;;;;5130408;27;20911;-58
2024/02/03 11:55:38;;;;;;;0.90;0.50;;;9.90;1.00;;;;;;5122566;27;20880;-59
2024/02/03 11:58:09;;;;;;;1.00;0.40;;;9.90;1.00;;;;;;5132775;27;20872;-59
2024/02/03 12:00:35;;;;;;;2.00;0.60;;;9.90;1.00;;;;;;5115009;27;20511;-58
2024/02/03 12:03:04;;;;;;;0.82;0.50;;;10.00;99.70;;;;;;5112765;27;20425;-57
2024/02/03 12:05:31;;;;;;;0.70;0.40;;;10.00;1.00;;;;;;5123103;27;20428;-59
2024/02/03 12:07:58;;;;;;;0.70;0.40;;;10.10;99.90;;;;;;5117564;27;20426;-59
2024/02/03 12:10:25;;;;;;;0.73;0.30;;;10.20;1.00;;;;;;5124663;27;20425;-59
2024/02/03 12:12:52;;;;;;;0.60;0.30;;;10.30;1.00;;;;;;5111485;27;20423;-60
2024/02/03 12:15:20;;;;;;;0.50;0.30;;;10.50;1.00;;;;;;5112967;27;20477;-60
2024/02/03 12:17:47;;;;;;;0.40;0.20;;;10.60;12.50;;;;;;5118715;27;20431;-60
2024/02/03 12:20:33;;;;;;;0.40;0.20;;;10.70;1.00;;;;;;5130224;27;20474;-60
2024/02/03 12:23:00;;;;;;;0.40;0.20;;;10.90;99.90;;;;;;5131500;27;20839;-60
2024/02/03 12:25:28;;;;;;;0.50;0.20;;;11.00;99.90;;;;;;5122851;27;20447;-60
2024/02/03 12:27:55;;;;;;;0.40;0.20;;;11.00;99.90;;;;;;5115036;27;20508;-60
2024/02/03 12:30:23;;;;;;;2.10;0.57;;;11.10;99.90;;;;;;5113958;27;20481;-60
2024/02/03 12:32:50;;;;;;;0.93;0.30;;;11.20;99.90;;;;;;5110261;28;20420;-59
2024/02/03 12:35:17;;;;;;;0.57;0.20;;;11.10;99.90;;;;;;5109247;28;20505;-59
2024/02/03 12:37:44;;;;;;;0.40;0.10;;;11.20;99.90;;;;;;5110005;28;20423;-60
2024/02/03 12:40:12;;;;;;;0.77;0.20;;;11.30;99.90;;;;;;5110848;28;20503;-60
2024/02/03 12:42:39;;;;;;;0.40;0.20;;;11.40;99.90;;;;;;5110172;28;20427;-59
2024/02/03 12:45:07;;;;;;;0.35;0.10;;;11.50;99.90;;;;;;5111752;28;20428;-60
2024/02/03 12:47:36;;;;;;;1.50;0.40;;;11.60;99.90;;;;;;5111406;28;20420;-60
2024/02/03 12:50:03;;;;;;;0.40;0.20;;;11.60;99.90;;;;;;5113232;28;20565;-60
2024/02/03 12:52:30;;;;;;;0.50;0.20;;;11.40;99.90;;;;;;5113469;28;20838;-60
2024/02/03 12:54:57;;;;;;;0.90;0.20;;;11.50;99.90;;;;;;5110977;28;20412;-59
2024/02/03 12:57:24;;;;;;;3.10;0.20;;;11.50;99.90;;;;;;5112635;28;20412;-59
2024/02/03 12:59:51;;;;;;;0.60;0.13;;;11.60;99.90;;;;;;5112199;28;20420;-60
2024/02/03 13:02:18;;;;;;;0.40;0.20;;;11.60;99.90;;;;;;5111476;28;20867;-60
2024/02/03 13:04:47;;;;;;;0.50;0.20;;;11.60;99.90;;;;;;5111981;28;20521;-59
2024/02/03 13:07:15;;;;;;;0.30;0.17;;;11.40;99.90;;;;;;5111155;28;20683;-60